Time;durP1;ratioP1;P1;durP2;ratioP2;P2;SDS_P1;SDS_P2;PMS_P1;PMS_P2;Temp;Humidity;BMP_temperature;BMP_pressure;BME280_temperature;BME280_humidity;BME280_pressure;Samples;Min_cycle;Max_cycle;Signal;HPM_P1;HPM_P2
2021/03/23 00:01:13;;;;;;;10.35;4.75;;;2.60;99.90;;;;;;5045119;28;20072;-75
2021/03/23 00:03:45;;;;;;;9.05;4.03;;;2.60;99.90;;;;;;5049383;28;20087;-75
2021/03/23 00:06:14;;;;;;;15.98;4.75;;;2.60;99.90;;;;;;5049058;28;20037;-75
2021/03/23 00:08:46;;;;;;;14.30;5.38;;;2.50;99.90;;;;;;5047750;28;20041;-75
2021/03/23 00:11:21;;;;;;;11.70;5.15;;;2.50;99.90;;;;;;5029652;28;20036;-75
2021/03/23 00:13:46;;;;;;;10.32;5.32;;;2.60;99.90;;;;;;5048391;28;20029;-75
2021/03/23 00:16:14;;;;;;;12.63;5.03;;;2.50;99.90;;;;;;5047544;28;20075;-75
2021/03/23 00:18:41;;;;;;;9.07;4.75;;;2.60;99.90;;;;;;5044990;28;20024;-75
2021/03/23 00:21:08;;;;;;;8.93;5.03;;;2.60;99.90;;;;;;5048872;28;20040;-75
2021/03/23 00:23:33;;;;;;;10.52;4.95;;;2.50;99.90;;;;;;5049799;28;20488;-75
2021/03/23 00:25:59;;;;;;;10.45;3.90;;;2.50;99.90;;;;;;5049526;28;20052;-75
2021/03/23 00:28:25;;;;;;;6.07;2.53;;;2.50;99.90;;;;;;5049307;28;20041;-75
2021/03/23 00:30:55;;;;;;;4.88;2.55;;;2.50;99.90;;;;;;5049123;28;20033;-75
2021/03/23 00:33:21;;;;;;;5.07;2.80;;;2.50;99.90;;;;;;5049547;28;20037;-75
2021/03/23 00:35:50;;;;;;;6.00;3.10;;;2.60;99.90;;;;;;5049769;28;20105;-75
2021/03/23 00:38:16;;;;;;;7.78;3.40;;;2.50;99.90;;;;;;5049095;28;20029;-75
2021/03/23 00:40:42;;;;;;;5.68;2.78;;;2.60;99.90;;;;;;5051795;28;20624;-75
2021/03/23 00:43:10;;;;;;;8.25;3.28;;;2.50;99.90;;;;;;5053638;28;20120;-75
2021/03/23 00:45:42;;;;;;;9.95;2.72;;;2.50;99.90;;;;;;5053323;28;20069;-75
2021/03/23 00:48:10;;;;;;;7.03;3.40;;;2.50;99.90;;;;;;5052783;28;20436;-75
2021/03/23 00:50:36;;;;;;;10.18;4.18;;;2.50;99.90;;;;;;5052670;28;20017;-75
2021/03/23 00:53:03;;;;;;;8.75;3.65;;;2.50;99.90;;;;;;5053141;28;20121;-75
2021/03/23 00:55:29;;;;;;;6.70;2.92;;;2.50;99.90;;;;;;5053404;28;20171;-75
2021/03/23 00:57:55;;;;;;;7.60;3.38;;;2.50;99.90;;;;;;5052883;28;20124;-75
2021/03/23 01:00:21;;;;;;;9.20;3.83;;;2.40;99.90;;;;;;5053131;28;20029;-75
2021/03/23 01:02:47;;;;;;;7.28;3.17;;;2.50;99.90;;;;;;5052547;28;20048;-75
2021/03/23 01:05:15;;;;;;;8.07;3.40;;;2.40;99.90;;;;;;5053155;28;20055;-75
2021/03/23 01:07:41;;;;;;;10.93;4.75;;;2.50;99.90;;;;;;5051950;28;20027;-75
2021/03/23 01:10:09;;;;;;;8.43;3.78;;;2.40;99.90;;;;;;5052583;28;20029;-75
2021/03/23 01:12:35;;;;;;;9.90;4.68;;;2.40;99.90;;;;;;5052240;28;20057;-75
2021/03/23 01:15:00;;;;;;;9.65;4.85;;;2.50;99.90;;;;;;5052690;28;20065;-75
2021/03/23 01:17:26;;;;;;;8.32;4.72;;;2.40;99.90;;;;;;5052385;28;20040;-75
2021/03/23 01:19:52;;;;;;;8.18;4.78;;;2.40;99.90;;;;;;5052860;28;20033;-75
2021/03/23 01:22:17;;;;;;;10.32;5.18;;;2.40;99.90;;;;;;5052125;28;20067;-75
2021/03/23 01:24:43;;;;;;;9.93;4.80;;;2.50;99.90;;;;;;5052829;28;20037;-75
2021/03/23 01:27:09;;;;;;;7.30;4.18;;;2.50;99.90;;;;;;5052163;28;20029;-75
2021/03/23 01:29:35;;;;;;;11.05;4.70;;;2.50;99.90;;;;;;5046038;28;20076;-75
2021/03/23 01:32:01;;;;;;;8.27;4.65;;;2.50;99.90;;;;;;5064072;28;20381;-75
2021/03/23 01:34:26;;;;;;;8.10;4.03;;;2.50;99.90;;;;;;5032519;28;20033;-75
2021/03/23 01:36:52;;;;;;;4.93;3.30;;;2.40;99.90;;;;;;5031735;28;20030;-75
2021/03/23 01:39:18;;;;;;;8.32;3.40;;;2.40;99.90;;;;;;5032626;28;20033;-75
2021/03/23 01:41:44;;;;;;;5.60;3.00;;;2.40;99.90;;;;;;5050538;28;20115;-75
2021/03/23 01:44:09;;;;;;;6.53;2.90;;;2.40;99.90;;;;;;5052353;28;20040;-75
2021/03/23 01:46:47;;;;;;;6.68;3.88;;;2.40;99.90;;;;;;5051637;28;20037;-75
2021/03/23 01:49:23;;;;;;;7.68;3.40;;;2.40;99.90;;;;;;5050819;28;20047;-75
2021/03/23 01:51:56;;;;;;;7.75;3.45;;;2.40;99.90;;;;;;5050322;28;20484;-75
2021/03/23 01:54:25;;;;;;;8.32;3.78;;;2.40;99.90;;;;;;5051020;28;20032;-75
2021/03/23 01:56:52;;;;;;;6.82;3.78;;;2.40;99.90;;;;;;5051724;28;20424;-75
2021/03/23 01:59:19;;;;;;;7.82;3.97;;;2.30;99.90;;;;;;5049581;28;20108;-75
2021/03/23 02:01:46;;;;;;;7.10;4.38;;;2.40;99.90;;;;;;5048817;28;20041;-75
2021/03/23 02:04:12;;;;;;;6.97;4.28;;;2.40;99.90;;;;;;5050154;28;20044;-75
2021/03/23 02:06:47;;;;;;;9.45;4.55;;;2.40;99.90;;;;;;5051264;28;20450;-75
2021/03/23 02:09:21;;;;;;;7.03;3.95;;;2.40;99.90;;;;;;5051835;28;20071;-75
2021/03/23 02:11:50;;;;;;;9.10;4.07;;;2.40;99.90;;;;;;5051154;28;20032;-75
2021/03/23 02:14:18;;;;;;;9.88;4.40;;;2.40;99.90;;;;;;5051456;28;20124;-75
2021/03/23 02:16:45;;;;;;;7.13;4.20;;;2.40;99.90;;;;;;5051468;28;20111;-75
2021/03/23 02:19:12;;;;;;;11.00;4.05;;;2.40;99.90;;;;;;5051708;28;20122;-75
2021/03/23 02:21:38;;;;;;;6.32;3.67;;;2.40;99.90;;;;;;5060229;28;20412;-75
2021/03/23 02:24:04;;;;;;;10.73;3.47;;;2.50;99.90;;;;;;5060920;28;20067;-75
2021/03/23 02:26:32;;;;;;;7.57;2.80;;;2.40;99.90;;;;;;5057282;28;20060;-75
2021/03/23 02:29:00;;;;;;;6.68;2.70;;;2.40;99.90;;;;;;5057175;28;20067;-75
2021/03/23 02:31:28;;;;;;;10.50;4.25;;;2.50;99.90;;;;;;5051958;28;20043;-75
2021/03/23 02:33:55;;;;;;;6.72;3.22;;;2.50;99.90;;;;;;5058432;28;20388;-75
2021/03/23 02:36:21;;;;;;;9.30;3.55;;;2.50;99.90;;;;;;5050575;28;20033;-75
2021/03/23 02:38:46;;;;;;;4.80;2.60;;;2.40;99.90;;;;;;5051105;28;20104;-75
2021/03/23 02:41:12;;;;;;;4.68;2.78;;;2.40;99.90;;;;;;5048932;28;20035;-75
2021/03/23 02:43:38;;;;;;;5.80;2.78;;;2.40;99.90;;;;;;5050647;28;20029;-75
2021/03/23 02:46:04;;;;;;;5.55;2.70;;;2.40;99.90;;;;;;5049651;28;20549;-75
2021/03/23 02:48:30;;;;;;;9.10;2.63;;;2.40;99.90;;;;;;5048178;28;20510;-75
2021/03/23 02:50:56;;;;;;;8.25;2.58;;;2.40;99.90;;;;;;5049750;28;20033;-75
2021/03/23 02:53:22;;;;;;;4.78;2.17;;;2.40;99.90;;;;;;5049119;28;20028;-75
2021/03/23 02:55:47;;;;;;;7.43;2.88;;;2.40;99.90;;;;;;5050506;28;20120;-75
2021/03/23 02:58:14;;;;;;;7.70;3.60;;;2.40;99.90;;;;;;5048440;28;20121;-75
2021/03/23 03:00:41;;;;;;;6.70;2.70;;;2.40;99.90;;;;;;5050075;28;20495;-75
2021/03/23 03:03:06;;;;;;;9.15;3.65;;;2.40;99.90;;;;;;5048369;28;20024;-75
2021/03/23 03:05:32;;;;;;;4.78;2.80;;;2.40;99.90;;;;;;5050139;28;20555;-75
2021/03/23 03:07:59;;;;;;;9.27;2.97;;;2.40;99.90;;;;;;5048054;28;20049;-74
2021/03/23 03:10:24;;;;;;;5.45;3.00;;;2.40;99.90;;;;;;5048743;28;20033;-75
2021/03/23 03:12:50;;;;;;;6.60;3.13;;;2.40;99.90;;;;;;5049967;28;20514;-74
2021/03/23 03:15:17;;;;;;;6.43;2.78;;;2.40;99.90;;;;;;5050702;28;20036;-75
2021/03/23 03:17:43;;;;;;;7.45;2.70;;;2.40;99.90;;;;;;5050147;28;20476;-75
2021/03/23 03:20:10;;;;;;;5.53;2.70;;;2.40;99.90;;;;;;5050500;28;20071;-75
2021/03/23 03:22:36;;;;;;;7.65;2.53;;;2.30;99.90;;;;;;5050032;28;20032;-75
2021/03/23 03:25:03;;;;;;;7.93;3.25;;;2.40;99.90;;;;;;5031496;28;20424;-75
2021/03/23 03:27:29;;;;;;;7.28;3.47;;;2.30;99.90;;;;;;5048631;28;20124;-75
2021/03/23 03:29:55;;;;;;;10.85;3.20;;;2.30;99.90;;;;;;5049141;28;20109;-75
2021/03/23 03:32:20;;;;;;;5.68;2.97;;;2.30;99.90;;;;;;5045593;28;20102;-75
2021/03/23 03:34:46;;;;;;;6.53;3.40;;;2.30;99.90;;;;;;5049797;28;20380;-75
2021/03/23 03:37:12;;;;;;;5.72;3.30;;;2.40;99.90;;;;;;5049760;28;20032;-75
2021/03/23 03:39:37;;;;;;;6.82;3.30;;;2.30;99.90;;;;;;5049849;28;20021;-75
2021/03/23 03:42:03;;;;;;;7.50;3.22;;;2.40;99.90;;;;;;5081176;28;20056;-75
2021/03/23 03:44:29;;;;;;;5.15;2.63;;;2.30;99.90;;;;;;5049766;28;20040;-75
2021/03/23 03:46:55;;;;;;;5.38;3.17;;;2.30;99.90;;;;;;5049395;28;20048;-75
2021/03/23 03:49:20;;;;;;;4.97;3.17;;;2.30;99.90;;;;;;5049869;28;20036;-75
2021/03/23 03:51:46;;;;;;;6.22;2.95;;;2.30;99.90;;;;;;5049058;28;20114;-75
2021/03/23 03:54:12;;;;;;;3.95;2.55;;;2.30;99.90;;;;;;5049534;28;20029;-75
2021/03/23 03:56:37;;;;;;;5.05;3.15;;;2.40;99.90;;;;;;5049345;28;20029;-75
2021/03/23 03:59:03;;;;;;;5.13;3.13;;;2.40;99.90;;;;;;5049790;28;20472;-75
2021/03/23 04:01:29;;;;;;;6.28;2.67;;;2.40;99.90;;;;;;5048253;28;20029;-75
2021/03/23 04:03:54;;;;;;;6.90;2.92;;;2.40;99.90;;;;;;5047551;28;20041;-75
2021/03/23 04:06:21;;;;;;;7.07;3.05;;;2.40;99.90;;;;;;5048944;28;20086;-75
2021/03/23 04:08:47;;;;;;;4.53;2.45;;;2.40;99.90;;;;;;5049330;28;20040;-75
2021/03/23 04:11:13;;;;;;;7.13;2.58;;;2.40;99.90;;;;;;5048914;28;20025;-75
2021/03/23 04:13:38;;;;;;;8.50;2.72;;;2.40;99.90;;;;;;5049322;28;20111;-74
2021/03/23 04:16:05;;;;;;;4.47;2.75;;;2.40;99.90;;;;;;5052988;28;20585;-75
2021/03/23 04:18:31;;;;;;;5.38;2.83;;;2.40;99.90;;;;;;5053377;28;20391;-75
2021/03/23 04:21:00;;;;;;;5.95;2.72;;;2.40;99.90;;;;;;5053289;28;20037;-75
2021/03/23 04:23:41;;;;;;;9.63;3.45;;;2.40;99.90;;;;;;5053840;28;20021;-74
2021/03/23 04:26:09;;;;;;;6.30;3.13;;;2.40;99.90;;;;;;5053737;28;20033;-75
2021/03/23 04:28:35;;;;;;;5.10;2.67;;;2.40;99.90;;;;;;5053922;28;20025;-75
2021/03/23 04:31:02;;;;;;;4.88;2.47;;;2.40;99.90;;;;;;5053266;28;20436;-75
2021/03/23 04:33:29;;;;;;;5.95;3.03;;;2.40;99.90;;;;;;5053328;28;20029;-75
2021/03/23 04:35:56;;;;;;;7.47;2.92;;;2.40;99.90;;;;;;5053721;28;20118;-75
2021/03/23 04:38:33;;;;;;;7.07;3.28;;;2.40;99.90;;;;;;5053040;28;20028;-75
2021/03/23 04:41:01;;;;;;;6.72;2.65;;;2.40;99.90;;;;;;5051646;28;20033;-75
2021/03/23 04:43:36;;;;;;;4.55;2.33;;;2.40;99.90;;;;;;5053370;28;20032;-75
2021/03/23 04:46:02;;;;;;;4.72;2.30;;;2.40;99.90;;;;;;5053443;28;20028;-75
2021/03/23 04:48:28;;;;;;;5.07;2.33;;;2.40;99.90;;;;;;5049753;28;20102;-75
2021/03/23 04:50:54;;;;;;;7.18;2.75;;;2.40;99.90;;;;;;5050681;28;20481;-75
2021/03/23 04:53:30;;;;;;;4.55;2.78;;;2.50;99.90;;;;;;5052880;28;20079;-74
2021/03/23 04:55:56;;;;;;;6.25;3.13;;;2.50;99.90;;;;;;5053283;28;20094;-75
2021/03/23 04:58:24;;;;;;;4.53;3.13;;;2.50;99.90;;;;;;5052850;28;20082;-74
2021/03/23 05:00:50;;;;;;;5.85;3.22;;;2.50;99.90;;;;;;5052042;28;20021;-75
2021/03/23 05:03:18;;;;;;;6.70;2.90;;;2.50;99.90;;;;;;5085017;28;20052;-75
2021/03/23 05:05:44;;;;;;;7.18;3.58;;;2.50;99.90;;;;;;5053259;28;20044;-75
2021/03/23 05:08:10;;;;;;;5.25;2.95;;;2.60;99.90;;;;;;5052572;28;20029;-75
2021/03/23 05:10:36;;;;;;;5.38;2.83;;;2.60;99.90;;;;;;5052258;28;20138;-74
2021/03/23 05:13:03;;;;;;;8.02;3.60;;;2.50;99.90;;;;;;5051627;28;20122;-75
2021/03/23 05:15:30;;;;;;;6.53;2.58;;;2.50;99.90;;;;;;5050337;28;20432;-75
2021/03/23 05:17:56;;;;;;;6.05;3.03;;;2.60;99.90;;;;;;5050811;28;20114;-75
2021/03/23 05:20:22;;;;;;;5.70;2.90;;;2.60;99.90;;;;;;5051077;28;20091;-75
2021/03/23 05:22:48;;;;;;;7.03;2.75;;;2.60;99.90;;;;;;5052460;28;20033;-75
2021/03/23 05:25:14;;;;;;;8.38;3.38;;;2.60;99.90;;;;;;5051369;28;20385;-75
2021/03/23 05:27:40;;;;;;;8.93;4.13;;;2.60;99.90;;;;;;5050912;28;20507;-75
2021/03/23 05:30:07;;;;;;;5.80;3.03;;;2.60;99.90;;;;;;5052383;28;20025;-74
2021/03/23 05:32:33;;;;;;;8.23;2.95;;;2.60;99.90;;;;;;5041594;28;20400;-74
2021/03/23 05:34:59;;;;;;;5.95;3.10;;;2.60;99.90;;;;;;5032585;28;20029;-74
2021/03/23 05:37:24;;;;;;;6.15;3.35;;;2.60;99.90;;;;;;5064190;28;20033;-74
2021/03/23 05:39:50;;;;;;;7.28;3.15;;;2.60;99.90;;;;;;5035763;28;20120;-74
2021/03/23 05:42:26;;;;;;;8.05;3.50;;;2.60;99.90;;;;;;5051785;28;20037;-74
2021/03/23 05:45:19;;;;;;;7.93;3.78;;;2.60;99.90;;;;;;5052261;28;20036;-74
2021/03/23 05:48:02;;;;;;;6.32;3.50;;;2.60;99.90;;;;;;5051986;28;20032;-74
2021/03/23 05:50:34;;;;;;;7.18;3.25;;;2.60;99.90;;;;;;5051841;28;20488;-74
2021/03/23 05:53:21;;;;;;;6.82;3.47;;;2.70;99.90;;;;;;5051931;28;20037;-74
2021/03/23 05:55:48;;;;;;;7.90;3.67;;;2.70;99.90;;;;;;5046610;28;20492;-74
2021/03/23 05:58:19;;;;;;;5.95;2.83;;;2.70;99.90;;;;;;5051364;28;20013;-74
2021/03/23 06:00:55;;;;;;;7.32;3.00;;;2.70;99.90;;;;;;5050808;28;20159;-74
2021/03/23 06:03:41;;;;;;;5.88;2.78;;;2.80;99.90;;;;;;5050193;28;20025;-74
2021/03/23 06:06:36;;;;;;;6.65;2.80;;;2.80;99.90;;;;;;5051957;28;20039;-74
2021/03/23 06:09:03;;;;;;;11.30;3.28;;;2.80;99.90;;;;;;5051908;28;20133;-74
2021/03/23 06:11:44;;;;;;;6.05;3.17;;;2.90;99.90;;;;;;5051079;28;20377;-74
2021/03/23 06:14:31;;;;;;;8.05;3.90;;;2.90;99.90;;;;;;5051871;28;20100;-74
2021/03/23 06:17:29;;;;;;;6.90;3.50;;;2.90;99.90;;;;;;5054797;28;20020;-74
2021/03/23 06:20:26;;;;;;;6.90;4.07;;;3.00;99.90;;;;;;5048607;28;20037;-74
2021/03/23 06:23:10;;;;;;;8.02;4.10;;;3.00;99.90;;;;;;5048171;28;20020;-74
2021/03/23 06:26:04;;;;;;;7.03;3.60;;;3.10;99.90;;;;;;5051259;28;20040;-74
2021/03/23 06:28:53;;;;;;;8.38;4.20;;;3.10;99.90;;;;;;5049617;28;20033;-74
2021/03/23 06:31:37;;;;;;;7.57;3.63;;;3.20;99.90;;;;;;5050621;28;20112;-74
2021/03/23 06:34:03;;;;;;;8.88;4.50;;;3.30;99.90;;;;;;5031450;28;20030;-74
2021/03/23 06:36:30;;;;;;;6.32;3.53;;;3.30;99.90;;;;;;5030896;28;20045;-74
2021/03/23 06:38:57;;;;;;;8.60;4.07;;;3.40;99.90;;;;;;5030947;28;20132;-74
2021/03/23 06:41:31;;;;;;;7.22;3.90;;;3.40;99.90;;;;;;5046300;28;20056;-74
2021/03/23 06:44:00;;;;;;;7.97;3.78;;;3.50;99.90;;;;;;5051518;28;20395;-74
2021/03/23 06:46:31;;;;;;;10.23;4.50;;;3.60;99.90;;;;;;5030865;28;20037;-74
2021/03/23 06:49:25;;;;;;;6.93;3.80;;;3.60;99.90;;;;;;5034893;28;20028;-74
2021/03/23 06:51:53;;;;;;;7.28;3.90;;;3.70;99.90;;;;;;5059572;28;20395;-74
2021/03/23 06:54:34;;;;;;;8.15;4.10;;;3.80;99.90;;;;;;5054019;28;20079;-74
2021/03/23 06:57:16;;;;;;;10.63;4.35;;;3.90;99.90;;;;;;5057283;28;20395;-74
2021/03/23 07:00:22;;;;;;;6.65;3.90;;;4.00;99.90;;;;;;5056948;28;20025;-74
2021/03/23 07:02:51;;;;;;;10.93;4.80;;;4.10;99.90;;;;;;5056391;28;20082;-74
2021/03/23 07:05:38;;;;;;;7.00;4.03;;;4.20;99.90;;;;;;5055929;28;20102;-74
2021/03/23 07:08:11;;;;;;;8.60;4.15;;;4.30;99.90;;;;;;5056697;28;20468;-74
2021/03/23 07:10:41;;;;;;;9.23;4.03;;;4.30;99.90;;;;;;5081627;28;20033;-74
2021/03/23 07:13:25;;;;;;;10.75;3.67;;;4.30;99.90;;;;;;5048122;28;20029;-74
2021/03/23 07:16:10;;;;;;;9.70;3.88;;;4.40;99.90;;;;;;5081351;28;20392;-74
2021/03/23 07:18:38;;;;;;;6.60;4.00;;;4.40;99.90;;;;;;5048814;28;20035;-74
2021/03/23 07:21:11;;;;;;;7.70;4.47;;;4.50;99.90;;;;;;5046957;28;20056;-74
2021/03/23 07:23:44;;;;;;;8.02;3.58;;;4.60;99.90;;;;;;5050193;28;20021;-74
2021/03/23 07:26:15;;;;;;;8.63;3.92;;;4.70;99.90;;;;;;5047926;28;20049;-74
2021/03/23 07:28:42;;;;;;;5.30;3.13;;;4.80;99.90;;;;;;5050503;28;20108;-74
2021/03/23 07:31:15;;;;;;;7.78;3.58;;;4.90;99.90;;;;;;5049483;28;20033;-74
2021/03/23 07:34:06;;;;;;;7.20;3.47;;;5.00;99.90;;;;;;5043886;28;20096;-74
2021/03/23 07:36:54;;;;;;;12.93;4.10;;;5.20;99.90;;;;;;5046824;28;20023;-74
2021/03/23 07:39:30;;;;;;;7.05;4.00;;;5.30;99.90;;;;;;5048136;28;20040;-74
2021/03/23 07:42:02;;;;;;;5.50;3.22;;;5.30;99.90;;;;;;5049259;28;20021;-74
2021/03/23 07:44:54;;;;;;;5.43;3.28;;;5.40;99.90;;;;;;5049839;28;20079;-74
2021/03/23 07:47:51;;;;;;;8.43;3.60;;;5.40;99.90;;;;;;5080331;28;20064;-74
2021/03/23 07:50:24;;;;;;;8.85;3.38;;;5.50;99.90;;;;;;5047822;28;20104;-74
2021/03/23 07:53:04;;;;;;;7.43;3.25;;;5.50;99.90;;;;;;5049468;28;20040;-74
2021/03/23 07:55:32;;;;;;;6.03;3.15;;;5.50;99.90;;;;;;5081869;28;20040;-74
2021/03/23 07:58:09;;;;;;;5.90;3.08;;;5.50;99.90;;;;;;5081351;28;20082;-74
2021/03/23 08:00:47;;;;;;;7.40;3.03;;;5.50;99.90;;;;;;5046017;28;20061;-74
2021/03/23 08:03:45;;;;;;;6.35;3.03;;;5.60;99.90;;;;;;5048676;28;20491;-74
2021/03/23 08:06:22;;;;;;;7.55;3.53;;;5.60;99.90;;;;;;5007800;28;20088;-74
2021/03/23 08:09:35;;;;;;;7.85;3.22;;;5.60;99.90;;;;;;5049492;28;20124;-74
2021/03/23 08:12:24;;;;;;;6.55;3.28;;;5.70;99.90;;;;;;5047802;28;20029;-74
2021/03/23 08:14:56;;;;;;;4.07;2.90;;;5.70;99.90;;;;;;5049578;28;20037;-74
2021/03/23 08:17:47;;;;;;;6.63;3.38;;;5.70;99.90;;;;;;5049186;28;20025;-74
2021/03/23 08:20:35;;;;;;;5.72;2.95;;;5.80;99.90;;;;;;5043722;28;20491;-74
2021/03/23 08:23:21;;;;;;;6.03;2.47;;;5.80;99.90;;;;;;5027866;28;20087;-74
2021/03/23 08:26:13;;;;;;;5.13;2.65;;;5.90;99.90;;;;;;5079337;28;20031;-75
2021/03/23 08:29:00;;;;;;;5.57;3.08;;;5.90;99.90;;;;;;5037696;28;20069;-74
2021/03/23 08:31:54;;;;;;;4.35;2.88;;;5.90;99.90;;;;;;5045576;28;20033;-74
2021/03/23 08:34:41;;;;;;;5.55;2.80;;;5.90;99.90;;;;;;5047850;28;20458;-74
2021/03/23 08:37:37;;;;;;;5.15;2.78;;;5.80;99.90;;;;;;5048304;28;20024;-75
2021/03/23 08:40:24;;;;;;;7.20;3.10;;;5.90;99.90;;;;;;5048750;28;20032;-74
2021/03/23 08:42:50;;;;;;;4.43;2.60;;;5.90;99.90;;;;;;5049048;28;20043;-74
2021/03/23 08:45:42;;;;;;;5.82;2.67;;;6.00;99.90;;;;;;5049445;28;20037;-74
2021/03/23 08:48:44;;;;;;;7.07;3.00;;;6.00;99.90;;;;;;5046805;28;20048;-74
2021/03/23 08:51:13;;;;;;;6.03;2.30;;;6.00;99.90;;;;;;5048013;28;20028;-75
2021/03/23 08:53:45;;;;;;;5.60;3.05;;;6.00;99.90;;;;;;5049366;28;20029;-75
2021/03/23 08:56:12;;;;;;;6.93;3.17;;;6.00;99.90;;;;;;5029405;28;20381;-75
2021/03/23 08:58:38;;;;;;;4.75;2.65;;;6.10;99.90;;;;;;5044597;28;20037;-75
2021/03/23 09:01:08;;;;;;;4.15;2.72;;;6.10;99.90;;;;;;5048438;28;20562;-75
2021/03/23 09:03:46;;;;;;;5.47;2.35;;;6.10;99.90;;;;;;5048368;28;20016;-75
2021/03/23 09:06:16;;;;;;;4.82;3.00;;;6.10;99.90;;;;;;5049846;28;20047;-75
2021/03/23 09:08:44;;;;;;;4.22;2.35;;;6.10;99.90;;;;;;5052225;28;20041;-74
2021/03/23 09:11:38;;;;;;;4.75;2.83;;;6.10;99.90;;;;;;5050202;28;20041;-75
2021/03/23 09:14:07;;;;;;;6.10;3.10;;;6.10;99.90;;;;;;5051112;28;20037;-75
2021/03/23 09:17:02;;;;;;;4.57;2.58;;;6.10;99.90;;;;;;5052070;28;20059;-74
2021/03/23 09:19:39;;;;;;;4.15;2.47;;;6.10;99.90;;;;;;5033278;28;20049;-74
2021/03/23 09:22:07;;;;;;;4.80;2.58;;;6.10;99.90;;;;;;5047714;28;20139;-74
2021/03/23 09:24:39;;;;;;;3.67;2.38;;;6.20;99.90;;;;;;5052419;28;20017;-75
2021/03/23 09:27:14;;;;;;;4.85;2.50;;;6.20;99.90;;;;;;5051036;28;20033;-74
2021/03/23 09:29:42;;;;;;;;;;;6.20;99.90;;;;;;5049906;28;20029;-75
2021/03/23 09:32:16;;;;;;;8.15;2.88;;;6.30;99.90;;;;;;5077538;28;19909;-74
2021/03/23 09:35:01;;;;;;;4.22;2.67;;;6.40;99.90;;;;;;5051879;28;20037;-74
2021/03/23 09:37:38;;;;;;;3.42;2.15;;;6.40;99.90;;;;;;5049935;28;20155;-75
2021/03/23 09:40:30;;;;;;;4.53;2.42;;;6.40;99.90;;;;;;5047976;28;20029;-75
2021/03/23 09:42:55;;;;;;;4.18;2.28;;;6.50;99.90;;;;;;5044525;28;20016;-75
2021/03/23 09:45:33;;;;;;;3.33;2.15;;;6.50;99.90;;;;;;5050911;28;20492;-74
2021/03/23 09:48:00;;;;;;;3.70;1.98;;;6.60;99.90;;;;;;5050537;28;20040;-75
2021/03/23 09:50:29;;;;;;;4.82;2.20;;;6.60;99.90;;;;;;5034207;28;20495;-74
2021/03/23 09:53:07;;;;;;;4.20;2.15;;;6.60;99.90;;;;;;5046347;28;20048;-75
2021/03/23 09:55:36;;;;;;;5.95;2.67;;;6.70;99.90;;;;;;5049946;28;20044;-75
2021/03/23 09:58:02;;;;;;;3.78;2.13;;;6.70;99.90;;;;;;5051396;28;20029;-75
2021/03/23 10:00:31;;;;;;;3.30;2.47;;;6.70;99.90;;;;;;5051589;28;20029;-75
2021/03/23 10:02:57;;;;;;;5.30;2.63;;;6.70;99.90;;;;;;5049815;28;20021;-74
2021/03/23 10:05:29;;;;;;;4.50;2.38;;;6.80;99.90;;;;;;5041311;28;20049;-74
2021/03/23 10:08:14;;;;;;;4.85;2.47;;;6.90;99.90;;;;;;5046095;28;20253;-74
2021/03/23 10:10:40;;;;;;;5.00;2.65;;;6.90;99.90;;;;;;5048026;28;20049;-74
2021/03/23 10:13:26;;;;;;;4.30;2.40;;;6.90;99.90;;;;;;5046231;28;20061;-75
2021/03/23 10:15:53;;;;;;;3.38;2.45;;;7.00;99.90;;;;;;5047641;28;20036;-75
2021/03/23 10:18:27;;;;;;;4.97;2.67;;;7.00;99.90;;;;;;5080185;28;20116;-75
2021/03/23 10:20:59;;;;;;;5.10;2.90;;;7.00;99.90;;;;;;5049287;28;20025;-75
2021/03/23 10:23:27;;;;;;;4.50;2.35;;;6.90;99.90;;;;;;5078097;28;20969;-75
2021/03/23 10:25:54;;;;;;;5.18;2.97;;;6.90;99.90;;;;;;5049558;28;20059;-75
2021/03/23 10:28:27;;;;;;;4.72;2.67;;;6.90;99.90;;;;;;5049583;28;20687;-75
2021/03/23 10:30:58;;;;;;;6.25;2.90;;;6.90;99.90;;;;;;5043984;28;20045;-75
2021/03/23 10:33:29;;;;;;;3.92;2.90;;;6.80;99.90;;;;;;5045380;28;20472;-75
2021/03/23 10:36:01;;;;;;;5.13;2.53;;;6.80;99.90;;;;;;5048838;28;20198;-75
2021/03/23 10:38:30;;;;;;;8.20;3.22;;;6.70;99.90;;;;;;5046182;28;20033;-75
2021/03/23 10:40:58;;;;;;;4.45;2.90;;;6.60;99.90;;;;;;5079787;28;20063;-75
2021/03/23 10:43:33;;;;;;;6.47;3.00;;;6.60;99.90;;;;;;5049735;28;20033;-75
2021/03/23 10:46:02;;;;;;;5.03;3.15;;;6.50;99.90;;;;;;5048733;28;20055;-75
2021/03/23 10:48:38;;;;;;;7.38;3.05;;;6.60;99.90;;;;;;5050251;28;20036;-75
2021/03/23 10:51:23;;;;;;;4.43;2.88;;;6.60;99.90;;;;;;5048242;28;20029;-75
2021/03/23 10:54:19;;;;;;;6.07;3.47;;;6.70;99.90;;;;;;5049959;28;20033;-75
2021/03/23 10:56:48;;;;;;;4.75;2.70;;;6.70;99.90;;;;;;5044221;28;20700;-75
2021/03/23 10:59:16;;;;;;;4.95;3.00;;;6.80;99.90;;;;;;5049044;28;20056;-75
2021/03/23 11:02:08;;;;;;;5.97;2.88;;;6.80;99.90;;;;;;5049979;28;20106;-75
2021/03/23 11:04:38;;;;;;;4.43;3.22;;;6.80;99.90;;;;;;5081702;28;20116;-75
2021/03/23 11:07:24;;;;;;;8.38;3.10;;;6.70;99.90;;;;;;5032085;28;20040;-75
2021/03/23 11:09:59;;;;;;;6.30;3.33;;;6.60;99.90;;;;;;5050618;28;20385;-75
2021/03/23 11:12:26;;;;;;;7.07;3.20;;;6.50;99.90;;;;;;5050240;28;20036;-75
2021/03/23 11:14:53;;;;;;;6.30;3.30;;;6.50;99.90;;;;;;5050690;28;20039;-75
2021/03/23 11:17:22;;;;;;;6.80;3.00;;;6.50;99.90;;;;;;5050485;28;20055;-75
2021/03/23 11:19:55;;;;;;;6.57;3.92;;;6.50;99.90;;;;;;5050766;28;20092;-75
2021/03/23 11:22:27;;;;;;;8.70;3.78;;;6.50;99.90;;;;;;5048835;28;20082;-75
2021/03/23 11:24:54;;;;;;;7.53;4.43;;;6.70;99.90;;;;;;5050046;28;20021;-75
2021/03/23 11:27:22;;;;;;;6.05;3.85;;;6.90;99.90;;;;;;5050159;28;20552;-75
2021/03/23 11:29:47;;;;;;;6.20;4.25;;;7.00;99.90;;;;;;5050683;28;20029;-75
2021/03/23 11:32:13;;;;;;;8.70;4.68;;;7.30;99.90;;;;;;5042462;28;20030;-75
2021/03/23 11:34:39;;;;;;;11.95;7.07;;;7.50;99.90;;;;;;5039815;28;20111;-75
2021/03/23 11:37:05;;;;;;;13.30;6.80;;;7.70;99.90;;;;;;5046444;28;20053;-75
2021/03/23 11:39:30;;;;;;;18.27;6.90;;;7.90;99.90;;;;;;5048602;28;20116;-75
2021/03/23 11:42:05;;;;;;;13.43;5.93;;;8.00;99.90;;;;;;5049280;28;20123;-75
2021/03/23 11:44:36;;;;;;;11.47;5.80;;;8.20;99.90;;;;;;5050048;28;20484;-75
2021/03/23 11:47:11;;;;;;;12.52;6.55;;;8.20;99.90;;;;;;5049689;28;20029;-75
2021/03/23 11:49:51;;;;;;;9.90;5.50;;;8.30;99.90;;;;;;5048384;28;20041;-75
2021/03/23 11:52:17;;;;;;;8.57;5.32;;;8.30;99.90;;;;;;5048482;28;20032;-75
2021/03/23 11:54:44;;;;;;;6.93;4.18;;;8.20;99.90;;;;;;5049875;28;20132;-75
2021/03/23 11:57:10;;;;;;;5.60;3.78;;;8.10;99.90;;;;;;5049150;28;20135;-75
2021/03/23 11:59:36;;;;;;;6.43;3.92;;;8.10;99.90;;;;;;5047084;28;20033;-75
2021/03/23 12:02:03;;;;;;;6.63;4.10;;;8.00;99.90;;;;;;5086887;28;20041;-75
2021/03/23 12:04:29;;;;;;;6.63;3.90;;;8.00;99.90;;;;;;5049708;28;20033;-75
2021/03/23 12:07:30;;;;;;;5.90;3.58;;;8.00;99.90;;;;;;5041804;28;20074;-75
2021/03/23 12:10:02;;;;;;;6.10;3.33;;;7.80;99.90;;;;;;5049622;28;20479;-75
2021/03/23 12:12:47;;;;;;;6.28;3.53;;;7.80;99.90;;;;;;5042924;28;20138;-75
2021/03/23 12:15:34;;;;;;;6.68;4.35;;;7.80;99.90;;;;;;5048716;28;20044;-75
2021/03/23 12:18:07;;;;;;;9.45;3.83;;;7.80;99.90;;;;;;5044488;28;20037;-75
2021/03/23 12:20:36;;;;;;;12.52;4.15;;;7.90;99.90;;;;;;5050101;28;20025;-75
2021/03/23 12:23:03;;;;;;;9.90;4.22;;;7.90;99.90;;;;;;5044468;28;20017;-75
2021/03/23 12:25:29;;;;;;;7.60;4.25;;;7.90;99.90;;;;;;5046648;28;20036;-75
2021/03/23 12:27:56;;;;;;;9.73;4.65;;;7.80;99.90;;;;;;5049174;28;20489;-75
2021/03/23 12:30:23;;;;;;;7.57;4.15;;;7.70;99.90;;;;;;5049282;28;20033;-75
2021/03/23 12:32:51;;;;;;;10.77;4.57;;;7.60;99.90;;;;;;5056300;28;20033;-75
2021/03/23 12:35:20;;;;;;;7.18;4.63;;;7.60;99.90;;;;;;5046848;28;20090;-75
2021/03/23 12:37:51;;;;;;;9.55;4.43;;;7.60;99.90;;;;;;5051937;28;20029;-75
2021/03/23 12:40:20;;;;;;;5.53;3.38;;;7.50;99.90;;;;;;5052343;28;20029;-75
2021/03/23 12:42:46;;;;;;;9.13;4.68;;;7.50;99.90;;;;;;5050732;28;20480;-75
2021/03/23 12:45:22;;;;;;;7.25;4.10;;;7.50;99.90;;;;;;5053080;28;20028;-75
2021/03/23 12:47:47;;;;;;;7.70;3.67;;;7.50;99.90;;;;;;5051541;28;20082;-75
2021/03/23 12:50:14;;;;;;;7.90;4.18;;;7.50;99.90;;;;;;5052944;28;20029;-76
2021/03/23 12:52:40;;;;;;;8.07;4.47;;;7.60;99.90;;;;;;5053208;28;20033;-76
2021/03/23 12:55:06;;;;;;;6.78;3.95;;;7.70;99.90;;;;;;5053278;28;20037;-75
2021/03/23 12:57:39;;;;;;;7.40;3.63;;;7.80;99.90;;;;;;5049270;28;20388;-75
2021/03/23 13:00:31;;;;;;;7.63;3.97;;;7.90;99.90;;;;;;5050108;28;20029;-75
2021/03/23 13:02:56;;;;;;;5.95;3.58;;;8.00;99.90;;;;;;5051318;28;20025;-75
2021/03/23 13:05:23;;;;;;;6.30;4.05;;;8.00;99.90;;;;;;5052595;28;20094;-75
2021/03/23 13:07:52;;;;;;;6.25;3.90;;;8.00;99.90;;;;;;5048795;28;20438;-75
2021/03/23 13:10:34;;;;;;;6.72;4.25;;;8.00;99.90;;;;;;5052472;28;20052;-75
2021/03/23 13:13:11;;;;;;;6.25;3.58;;;8.00;99.90;;;;;;5050994;28;20025;-75
2021/03/23 13:15:37;;;;;;;5.40;3.58;;;7.90;99.90;;;;;;5049833;28;20061;-75
2021/03/23 13:18:03;;;;;;;5.82;3.55;;;7.70;99.90;;;;;;5054325;28;20055;-75
2021/03/23 13:20:28;;;;;;;6.32;3.63;;;7.60;99.90;;;;;;5051694;28;20025;-75